createdAt,value
2017-01-07T00:00:16.612Z,0
2017-01-07T00:01:16.612Z,0
2017-01-07T00:02:16.104Z,0
2017-01-07T00:03:15.992Z,0
2017-01-07T00:04:16.392Z,0
2017-01-07T00:05:16.921Z,0
2017-01-07T00:06:16.231Z,0
2017-01-07T00:07:17.273Z,0
2017-01-07T00:08:17.557Z,0
2017-01-07T00:09:17.539Z,0
2017-01-07T00:10:17.386Z,0
2017-01-07T00:11:17.162Z,0
2017-01-07T00:12:16.811Z,0
2017-01-07T00:13:16.467Z,0
2017-01-07T00:14:16.430Z,0
2017-01-07T00:15:15.437Z,0
2017-01-07T00:16:16.877Z,0
2017-01-07T00:17:15.924Z,0
2017-01-07T00:18:16.932Z,0
2017-01-07T00:19:16.494Z,0
2017-01-07T00:20:16.497Z,0
2017-01-07T00:21:16.462Z,0
2017-01-07T00:22:16.558Z,0
2017-01-07T00:23:15.812Z,0
2017-01-07T00:24:14.951Z,0
2017-01-07T00:25:15.669Z,0
2017-01-07T00:26:15.778Z,0
2017-01-07T00:27:16.379Z,0
2017-01-07T00:28:15.998Z,0
2017-01-07T00:29:16.303Z,0
2017-01-07T00:30:16.259Z,0
2017-01-07T00:31:15.876Z,0
2017-01-07T00:32:16.242Z,0
2017-01-07T00:33:16.187Z,0
2017-01-07T00:34:14.668Z,0
2017-01-07T00:35:16.041Z,0
2017-01-07T00:36:15.993Z,0
2017-01-07T00:37:16.385Z,0
2017-01-07T00:38:14.634Z,0
2017-01-07T00:39:15.212Z,0
2017-01-07T00:40:15.611Z,0
2017-01-07T00:41:15.592Z,0
2017-01-07T00:42:15.538Z,0
2017-01-07T00:43:15.961Z,0
2017-01-07T00:44:14.516Z,0
2017-01-07T00:45:15.287Z,0
2017-01-07T00:46:16.158Z,0
2017-01-07T00:47:16.189Z,0
2017-01-07T00:48:16.238Z,0
2017-01-07T00:49:15.677Z,0
2017-01-07T00:50:15.665Z,0
2017-01-07T00:51:14.963Z,0
2017-01-07T00:52:14.804Z,0
2017-01-07T00:53:15.762Z,0
2017-01-07T00:54:15.203Z,0
2017-01-07T00:55:15.812Z,0
2017-01-07T00:56:15.476Z,0
2017-01-07T00:57:15.551Z,0
2017-01-07T00:58:15.950Z,0
2017-01-07T00:59:15.755Z,0
2017-01-07T01:00:15.148Z,0
2017-01-07T01:01:13.938Z,0
2017-01-07T01:02:14.323Z,0
2017-01-07T01:03:14.948Z,0
2017-01-07T01:04:15.556Z,0
2017-01-07T01:05:15.236Z,0
2017-01-07T01:06:13.707Z,0
2017-01-07T01:07:15.463Z,0
2017-01-07T01:08:15.463Z,0
2017-01-07T01:09:14.748Z,0
2017-01-07T01:10:14.933Z,0
2017-01-07T01:11:15.362Z,0
2017-01-07T01:12:15.351Z,0
2017-01-07T01:13:14.647Z,0
2017-01-07T01:14:14.789Z,0
2017-01-07T01:15:15.269Z,0
2017-01-07T01:16:13.579Z,0
2017-01-07T01:17:14.521Z,0
2017-01-07T01:18:14.508Z,0
2017-01-07T01:19:14.790Z,0
2017-01-07T01:20:13.778Z,0
2017-01-07T01:21:15.256Z,0
2017-01-07T01:22:14.894Z,0
2017-01-07T01:23:13.934Z,0
2017-01-07T01:24:13.652Z,0
2017-01-07T01:25:15.258Z,0
2017-01-07T01:26:14.299Z,0
2017-01-07T01:27:15.187Z,0
2017-01-07T01:28:15.041Z,0
2017-01-07T01:29:15.129Z,0
2017-01-07T01:30:14.108Z,0
2017-01-07T01:31:13.666Z,0
2017-01-07T01:32:14.579Z,0
2017-01-07T01:33:13.938Z,0
2017-01-07T01:34:14.018Z,0
2017-01-07T01:35:13.677Z,0
2017-01-07T01:36:13.965Z,0
2017-01-07T01:37:14.268Z,0
2017-01-07T01:38:13.485Z,0
2017-01-07T01:39:14.102Z,0
2017-01-07T01:40:14.006Z,0
2017-01-07T01:41:13.334Z,0
2017-01-07T01:42:12.696Z,0
2017-01-07T01:43:14.396Z,0
2017-01-07T01:44:13.592Z,0
2017-01-07T01:45:13.691Z,0
2017-01-07T01:46:13.567Z,0
2017-01-07T01:47:13.617Z,0
2017-01-07T01:48:13.489Z,0
2017-01-07T01:49:12.821Z,0
2017-01-07T01:50:13.181Z,0
2017-01-07T01:51:13.880Z,0
2017-01-07T01:52:13.363Z,0
2017-01-07T01:53:13.751Z,0
2017-01-07T01:54:14.366Z,0
2017-01-07T01:55:13.374Z,0
2017-01-07T01:56:13.853Z,0
2017-01-07T01:57:13.960Z,0
2017-01-07T01:58:13.627Z,0
2017-01-07T01:59:13.803Z,0
2017-01-07T02:00:13.536Z,0
2017-01-07T02:01:13.671Z,0
2017-01-07T02:02:13.067Z,0
2017-01-07T02:03:13.827Z,0
2017-01-07T02:04:13.768Z,0
2017-01-07T02:05:14.002Z,0
2017-01-07T02:06:13.657Z,0
2017-01-07T02:07:13.338Z,0
2017-01-07T02:08:12.684Z,0
2017-01-07T02:09:12.826Z,0
2017-01-07T02:10:13.246Z,0
2017-01-07T02:11:13.284Z,0
2017-01-07T02:12:12.475Z,0
2017-01-07T02:13:13.005Z,0
2017-01-07T02:14:11.773Z,0
2017-01-07T02:15:13.761Z,0
2017-01-07T02:16:13.249Z,0
2017-01-07T02:17:12.789Z,0
2017-01-07T02:18:13.025Z,0
2017-01-07T02:19:12.349Z,0
2017-01-07T02:20:12.638Z,0
2017-01-07T02:21:11.449Z,0
2017-01-07T02:22:12.606Z,0
2017-01-07T02:23:12.201Z,0
2017-01-07T02:24:12.736Z,0
2017-01-07T02:25:12.835Z,0
2017-01-07T02:26:12.784Z,0
2017-01-07T02:27:12.320Z,0
2017-01-07T02:28:12.575Z,0
2017-01-07T02:29:12.519Z,0
2017-01-07T02:30:12.335Z,0
2017-01-07T02:31:11.840Z,0
2017-01-07T02:32:11.930Z,0
2017-01-07T02:33:12.553Z,0
2017-01-07T02:34:12.105Z,0
2017-01-07T02:35:12.537Z,0
2017-01-07T02:36:12.481Z,0
2017-01-07T02:37:12.745Z,0
2017-01-07T02:38:11.750Z,0
2017-01-07T02:39:12.449Z,0
2017-01-07T02:40:12.298Z,0
2017-01-07T02:41:11.993Z,0
2017-01-07T02:42:12.707Z,0
2017-01-07T02:43:12.068Z,0
2017-01-07T02:44:12.249Z,0
2017-01-07T02:45:11.878Z,0
2017-01-07T02:46:12.292Z,0
2017-01-07T02:47:12.172Z,0
2017-01-07T02:48:12.104Z,0
2017-01-07T02:49:11.436Z,0
2017-01-07T02:50:12.083Z,0
2017-01-07T02:51:11.362Z,0
2017-01-07T02:52:12.189Z,0
2017-01-07T02:53:12.645Z,0
2017-01-07T02:54:11.795Z,0
2017-01-07T02:55:12.524Z,0
2017-01-07T02:56:11.148Z,0
2017-01-07T02:57:11.262Z,0
2017-01-07T02:58:11.491Z,0
2017-01-07T02:59:10.718Z,0
2017-01-07T03:00:11.922Z,0
2017-01-07T03:01:12.036Z,0
2017-01-07T03:02:10.825Z,0
2017-01-07T03:03:12.355Z,0
2017-01-07T03:04:10.995Z,0
2017-01-07T03:05:11.128Z,0
2017-01-07T03:06:10.729Z,0
2017-01-07T03:07:10.483Z,0
2017-01-07T03:08:10.843Z,0
2017-01-07T03:09:10.761Z,0
2017-01-07T03:10:10.905Z,0
2017-01-07T03:11:11.349Z,0
2017-01-07T03:12:11.244Z,0
2017-01-07T03:13:11.351Z,0
2017-01-07T03:14:11.369Z,0
2017-01-07T03:15:10.979Z,0
2017-01-07T03:16:11.269Z,0
2017-01-07T03:17:10.918Z,0
2017-01-07T03:18:10.808Z,0
2017-01-07T03:19:10.837Z,0
2017-01-07T03:20:11.487Z,0
2017-01-07T03:21:10.986Z,0
2017-01-07T03:22:11.385Z,0
2017-01-07T03:23:11.094Z,0
2017-01-07T03:24:10.744Z,0
2017-01-07T03:25:11.053Z,0
2017-01-07T03:26:09.942Z,0
2017-01-07T03:27:10.957Z,0
2017-01-07T03:28:10.852Z,0
2017-01-07T03:29:10.882Z,0
2017-01-07T03:30:10.790Z,0
2017-01-07T03:31:11.141Z,0
2017-01-07T03:32:09.721Z,0
2017-01-07T03:33:10.430Z,0
2017-01-07T03:34:10.313Z,0
2017-01-07T03:35:11.098Z,0
2017-01-07T03:36:10.347Z,0
2017-01-07T03:37:10.325Z,0
2017-01-07T03:38:09.207Z,0
2017-01-07T03:39:10.316Z,0
2017-01-07T03:40:09.884Z,0
2017-01-07T03:41:09.564Z,0
2017-01-07T03:42:11.159Z,0
2017-01-07T03:43:10.465Z,0
2017-01-07T03:44:10.841Z,0
2017-01-07T03:45:09.764Z,0
2017-01-07T03:46:10.227Z,0
2017-01-07T03:47:10.002Z,0
2017-01-07T03:48:09.648Z,0
2017-01-07T03:49:09.996Z,0
2017-01-07T03:50:09.451Z,0
2017-01-07T03:51:09.812Z,0
2017-01-07T03:52:10.224Z,0
2017-01-07T03:53:09.749Z,0
2017-01-07T03:54:10.481Z,0
2017-01-07T03:55:09.410Z,0
2017-01-07T03:56:09.018Z,0
2017-01-07T03:57:10.068Z,0
2017-01-07T03:58:09.348Z,0
2017-01-07T03:59:10.657Z,0
2017-01-07T04:00:09.987Z,0
2017-01-07T04:01:09.537Z,0
2017-01-07T04:02:08.507Z,0
2017-01-07T04:03:09.237Z,0
2017-01-07T04:04:10.184Z,0
2017-01-07T04:05:10.331Z,0
2017-01-07T04:06:09.416Z,0
2017-01-07T04:07:09.688Z,0
2017-01-07T04:08:08.988Z,0
2017-01-07T04:09:09.685Z,0
2017-01-07T04:10:10.399Z,0
2017-01-07T04:11:09.314Z,0
2017-01-07T04:12:08.861Z,0
2017-01-07T04:13:09.350Z,0
2017-01-07T04:14:08.881Z,0
2017-01-07T04:15:09.481Z,0
2017-01-07T04:16:10.024Z,0
2017-01-07T04:17:09.056Z,0
2017-01-07T04:18:09.248Z,0
2017-01-07T04:19:08.737Z,0
2017-01-07T04:20:09.311Z,0
2017-01-07T04:21:09.312Z,0
2017-01-07T04:22:08.648Z,0
2017-01-07T04:23:08.331Z,0
2017-01-07T04:24:08.931Z,0
2017-01-07T04:25:09.056Z,0
2017-01-07T04:26:08.208Z,0
2017-01-07T04:27:09.054Z,0
2017-01-07T04:28:09.163Z,0
2017-01-07T04:29:08.943Z,0
2017-01-07T04:30:08.344Z,0
2017-01-07T04:31:08.564Z,0
2017-01-07T04:32:08.952Z,0
2017-01-07T04:33:08.562Z,0
2017-01-07T04:34:08.603Z,0
2017-01-07T04:35:07.566Z,0
2017-01-07T04:36:08.261Z,0
2017-01-07T04:37:09.510Z,0
2017-01-07T04:38:08.850Z,0
2017-01-07T04:39:08.774Z,0
2017-01-07T04:40:09.106Z,0
2017-01-07T04:41:08.262Z,0
2017-01-07T04:42:07.960Z,0
2017-01-07T04:43:08.067Z,0
2017-01-07T04:44:08.677Z,0
2017-01-07T04:45:09.018Z,0
2017-01-07T04:46:07.922Z,0
2017-01-07T04:47:09.221Z,0
2017-01-07T04:48:07.850Z,0
2017-01-07T04:49:07.735Z,0
2017-01-07T04:50:07.682Z,0
2017-01-07T04:51:08.095Z,0
2017-01-07T04:52:09.069Z,0
2017-01-07T04:53:08.063Z,0
2017-01-07T04:54:07.639Z,0
2017-01-07T04:55:07.636Z,0
2017-01-07T04:56:08.254Z,0
2017-01-07T04:57:08.603Z,0
2017-01-07T04:58:08.564Z,0
2017-01-07T04:59:08.091Z,0
2017-01-07T05:00:08.826Z,0
2017-01-07T05:01:08.000Z,0
2017-01-07T05:02:07.774Z,0
2017-01-07T05:03:08.599Z,0
2017-01-07T05:04:07.576Z,0
2017-01-07T05:05:07.016Z,0
2017-01-07T05:06:07.864Z,0
2017-01-07T05:07:08.275Z,0
2017-01-07T05:08:07.946Z,0
2017-01-07T05:09:08.536Z,0
2017-01-07T05:10:06.885Z,0
2017-01-07T05:11:08.234Z,0
2017-01-07T05:12:07.736Z,0
2017-01-07T05:13:07.650Z,0
2017-01-07T05:14:07.659Z,0
2017-01-07T05:15:07.290Z,0
2017-01-07T05:16:07.322Z,0
2017-01-07T05:17:07.979Z,0
2017-01-07T05:18:07.274Z,0
2017-01-07T05:19:07.639Z,0
2017-01-07T05:20:07.356Z,0
2017-01-07T05:21:07.858Z,0
2017-01-07T05:22:07.800Z,0
2017-01-07T05:23:07.549Z,0
2017-01-07T05:24:07.740Z,0
2017-01-07T05:25:07.717Z,0
2017-01-07T05:26:07.926Z,0
2017-01-07T05:27:07.398Z,0
2017-01-07T05:28:07.662Z,0
2017-01-07T05:29:06.952Z,0
2017-01-07T05:30:07.416Z,0
2017-01-07T05:31:07.225Z,0
2017-01-07T05:32:06.885Z,0
2017-01-07T05:33:06.818Z,0
2017-01-07T05:34:07.134Z,0
2017-01-07T05:35:06.454Z,0
2017-01-07T05:36:06.725Z,0
2017-01-07T05:37:06.555Z,0
2017-01-07T05:38:07.033Z,0
2017-01-07T05:39:06.700Z,0
2017-01-07T05:40:06.945Z,0
2017-01-07T05:41:06.609Z,0
2017-01-07T05:42:06.878Z,0
2017-01-07T05:43:07.385Z,0
2017-01-07T05:44:06.835Z,0
2017-01-07T05:45:06.798Z,0
2017-01-07T05:46:05.714Z,0
2017-01-07T05:47:06.025Z,0
2017-01-07T05:48:05.406Z,0
2017-01-07T05:49:07.355Z,0
2017-01-07T05:50:05.995Z,0
2017-01-07T05:51:06.009Z,0
2017-01-07T05:52:05.653Z,0
2017-01-07T05:53:06.543Z,0
2017-01-07T05:54:05.883Z,0
2017-01-07T05:55:06.501Z,0
2017-01-07T05:56:05.481Z,0
2017-01-07T05:57:05.881Z,0
2017-01-07T05:58:05.598Z,0
2017-01-07T05:59:06.377Z,0
2017-01-07T06:00:05.604Z,0
2017-01-07T06:01:06.641Z,0
2017-01-07T06:02:06.608Z,0
2017-01-07T06:03:06.786Z,0
2017-01-07T06:04:06.238Z,0
2017-01-07T06:05:05.837Z,0
2017-01-07T06:06:06.166Z,0
2017-01-07T06:07:05.145Z,0
2017-01-07T06:08:06.074Z,0
2017-01-07T06:09:06.054Z,0
2017-01-07T06:10:06.361Z,0
2017-01-07T06:11:06.544Z,0
2017-01-07T06:12:05.999Z,0
2017-01-07T06:13:06.284Z,0
2017-01-07T06:14:05.590Z,0
2017-01-07T06:15:05.913Z,0
2017-01-07T06:16:05.207Z,0
2017-01-07T06:17:05.149Z,0
2017-01-07T06:18:05.981Z,0
2017-01-07T06:19:05.447Z,0
2017-01-07T06:20:06.409Z,0
2017-01-07T06:21:05.069Z,0
2017-01-07T06:22:05.266Z,0
2017-01-07T06:23:05.644Z,0
2017-01-07T06:24:05.503Z,0
2017-01-07T06:25:05.577Z,0
2017-01-07T06:26:04.878Z,0
2017-01-07T06:27:05.526Z,0
2017-01-07T06:28:05.138Z,0
2017-01-07T06:29:04.159Z,0
2017-01-07T06:30:06.094Z,0
2017-01-07T06:31:04.417Z,0
2017-01-07T06:32:04.621Z,0
2017-01-07T06:33:05.053Z,0
2017-01-07T06:34:04.993Z,0
2017-01-07T06:35:04.649Z,0
2017-01-07T06:36:04.171Z,0
2017-01-07T06:37:04.400Z,0
2017-01-07T06:38:05.513Z,0
2017-01-07T06:39:05.169Z,0
2017-01-07T06:40:04.778Z,0
2017-01-07T06:41:04.098Z,0
2017-01-07T06:42:05.727Z,0
2017-01-07T06:43:04.393Z,0
2017-01-07T06:44:04.994Z,0
2017-01-07T06:45:04.227Z,0
2017-01-07T06:46:04.981Z,0
2017-01-07T06:47:04.235Z,0
2017-01-07T06:48:04.544Z,0
2017-01-07T06:49:04.816Z,0
2017-01-07T06:50:04.837Z,0
2017-01-07T06:51:04.457Z,0
2017-01-07T06:52:04.761Z,0
2017-01-07T06:53:04.380Z,0
2017-01-07T06:54:04.045Z,0
2017-01-07T06:55:04.263Z,0
2017-01-07T06:56:05.286Z,0
2017-01-07T06:57:04.588Z,0
2017-01-07T06:58:04.576Z,0
2017-01-07T06:59:04.204Z,0
2017-01-07T07:00:03.536Z,0
2017-01-07T07:01:03.997Z,0
2017-01-07T07:02:04.034Z,0
2017-01-07T07:03:03.548Z,0
2017-01-07T07:04:04.448Z,0
2017-01-07T07:05:04.725Z,4
2017-01-07T07:06:04.291Z,4
2017-01-07T07:07:04.328Z,4
2017-01-07T07:08:04.937Z,0
2017-01-07T07:09:04.550Z,0
2017-01-07T07:10:03.462Z,4
2017-01-07T07:11:03.963Z,4
2017-01-07T07:12:04.105Z,4
2017-01-07T07:13:04.057Z,4
2017-01-07T07:14:03.782Z,4
2017-01-07T07:15:02.979Z,4
2017-01-07T07:16:04.739Z,8
2017-01-07T07:17:04.240Z,8
2017-01-07T07:18:04.377Z,8
2017-01-07T07:19:04.255Z,12
2017-01-07T07:20:03.957Z,12
2017-01-07T07:21:02.792Z,12
2017-01-07T07:22:04.540Z,16
2017-01-07T07:23:03.692Z,16
2017-01-07T07:24:04.514Z,20
2017-01-07T07:25:03.424Z,20
2017-01-07T07:26:03.743Z,24
2017-01-07T07:27:03.780Z,24
2017-01-07T07:28:03.567Z,28
2017-01-07T07:29:04.295Z,28
2017-01-07T07:30:03.950Z,32
2017-01-07T07:31:03.580Z,28
2017-01-07T07:32:03.216Z,32
2017-01-07T07:33:03.086Z,32
2017-01-07T07:34:03.478Z,40
2017-01-07T07:35:03.488Z,40
2017-01-07T07:36:03.504Z,44
2017-01-07T07:37:02.968Z,44
2017-01-07T07:38:02.544Z,48
2017-01-07T07:39:02.682Z,48
2017-01-07T07:40:03.966Z,52
2017-01-07T07:41:03.184Z,52
2017-01-07T07:42:03.281Z,52
2017-01-07T07:43:03.184Z,56
2017-01-07T07:44:02.447Z,60
2017-01-07T07:45:03.059Z,64
2017-01-07T07:46:02.992Z,68
2017-01-07T07:47:01.609Z,72
2017-01-07T07:48:02.379Z,76
2017-01-07T07:49:02.691Z,84
2017-01-07T07:50:02.513Z,88
2017-01-07T07:51:03.120Z,92
2017-01-07T07:52:02.837Z,100
2017-01-07T07:53:02.253Z,104
2017-01-07T07:54:02.053Z,112
2017-01-07T07:55:03.171Z,120
2017-01-07T07:56:02.837Z,132
2017-01-07T07:57:02.073Z,140
2017-01-07T07:58:03.261Z,148
2017-01-07T07:59:02.070Z,152
2017-01-07T08:00:02.696Z,160
2017-01-07T08:01:02.678Z,164
2017-01-07T08:02:02.441Z,172
2017-01-07T08:03:01.936Z,184
2017-01-07T08:04:01.423Z,200
2017-01-07T08:05:02.328Z,216
2017-01-07T08:06:01.712Z,232
2017-01-07T08:07:02.482Z,244
2017-01-07T08:08:03.128Z,252
2017-01-07T08:09:02.369Z,264
2017-01-07T08:10:02.719Z,264
2017-01-07T08:11:02.209Z,268
2017-01-07T08:12:02.332Z,276
2017-01-07T08:13:01.337Z,280
2017-01-07T08:14:02.584Z,288
2017-01-07T08:15:01.520Z,296
2017-01-07T08:16:01.464Z,304
2017-01-07T08:17:02.156Z,320
2017-01-07T08:18:01.381Z,336
2017-01-07T08:19:02.024Z,348
2017-01-07T08:20:02.620Z,352
2017-01-07T08:21:02.402Z,352
2017-01-07T08:22:02.011Z,352
2017-01-07T08:23:01.891Z,356
2017-01-07T08:24:01.841Z,368
2017-01-07T08:25:02.443Z,372
2017-01-07T08:26:01.749Z,376
2017-01-07T08:27:02.189Z,384
2017-01-07T08:28:02.189Z,384
2017-01-07T08:29:02.139Z,396
2017-01-07T08:30:01.780Z,400
2017-01-07T08:31:01.949Z,412
2017-01-07T08:32:02.480Z,424
2017-01-07T08:33:01.234Z,444
2017-01-07T08:34:01.325Z,460
2017-01-07T08:35:02.119Z,480
2017-01-07T08:36:01.450Z,500
2017-01-07T08:37:01.226Z,520
2017-01-07T08:38:01.045Z,556
2017-01-07T08:39:01.529Z,596
2017-01-07T08:40:02.159Z,632
2017-01-07T08:41:01.440Z,652
2017-01-07T08:42:01.073Z,668
2017-01-07T08:43:01.919Z,672
2017-01-07T08:44:01.462Z,696
2017-01-07T08:45:01.185Z,748
2017-01-07T08:46:00.866Z,824
2017-01-07T08:47:00.866Z,916
2017-01-07T08:48:01.111Z,1016
2017-01-07T08:48:59.954Z,1056
2017-01-07T08:50:01.208Z,1180
2017-01-07T08:51:00.378Z,1276
2017-01-07T08:52:01.441Z,1336
2017-01-07T08:53:01.101Z,1356
2017-01-07T08:54:00.710Z,1360
2017-01-07T08:55:01.197Z,1372
2017-01-07T08:56:00.359Z,1372
2017-01-07T08:57:00.937Z,1288
2017-01-07T08:58:00.329Z,1200
2017-01-07T08:59:00.833Z,1104
2017-01-07T08:59:59.926Z,1100
2017-01-07T09:01:00.172Z,1092
2017-01-07T09:02:00.394Z,1144
2017-01-07T09:03:01.414Z,1216
2017-01-07T09:04:00.744Z,1328
2017-01-07T09:05:00.697Z,1520
2017-01-07T09:06:00.217Z,1756
2017-01-07T09:06:59.599Z,1932
2017-01-07T09:08:00.641Z,2052
2017-01-07T09:09:00.600Z,2112
2017-01-07T09:10:00.278Z,2156
2017-01-07T09:10:59.473Z,2092
2017-01-07T09:12:00.531Z,2060
2017-01-07T09:13:00.714Z,1968
2017-01-07T09:14:00.778Z,1876
2017-01-07T09:14:59.734Z,1888
2017-01-07T09:16:00.068Z,1988
2017-01-07T09:16:59.680Z,2008
2017-01-07T09:18:00.003Z,2112
2017-01-07T09:19:00.312Z,2192
2017-01-07T09:20:00.942Z,2172
2017-01-07T09:21:00.581Z,2032
2017-01-07T09:22:00.523Z,1928
2017-01-07T09:22:59.880Z,1868
2017-01-07T09:23:59.539Z,1876
2017-01-07T09:25:00.119Z,1888
2017-01-07T09:26:00.175Z,1836
2017-01-07T09:27:00.085Z,1756
2017-01-07T09:28:00.706Z,1716
2017-01-07T09:28:59.834Z,1696
2017-01-07T09:29:59.444Z,1676
2017-01-07T09:31:00.045Z,1724
2017-01-07T09:31:59.403Z,1812
2017-01-07T09:32:59.901Z,1900
2017-01-07T09:33:58.472Z,2052
2017-01-07T09:35:00.112Z,2292
2017-01-07T09:35:59.234Z,2484
2017-01-07T09:36:59.781Z,2620
2017-01-07T09:38:00.121Z,2524
2017-01-07T09:38:59.350Z,2376
2017-01-07T09:39:59.329Z,2216
2017-01-07T09:41:00.348Z,1972
2017-01-07T09:41:59.401Z,1848
2017-01-07T09:42:59.566Z,1736
2017-01-07T09:43:59.551Z,1652
2017-01-07T09:44:59.826Z,1540
2017-01-07T09:45:59.805Z,1480
2017-01-07T09:46:58.735Z,1396
2017-01-07T09:47:59.775Z,1352
2017-01-07T09:48:58.968Z,1288
2017-01-07T09:49:59.704Z,1284
2017-01-07T09:50:58.875Z,1308
2017-01-07T09:51:59.503Z,1292
2017-01-07T09:52:59.912Z,1332
2017-01-07T09:53:58.197Z,1332
2017-01-07T09:54:59.369Z,1304
2017-01-07T09:55:59.201Z,1260
2017-01-07T09:56:59.485Z,1288
2017-01-07T09:57:59.352Z,1264
2017-01-07T09:58:59.822Z,1236
2017-01-07T09:59:58.985Z,1280
2017-01-07T10:00:59.710Z,1332
2017-01-07T10:01:58.915Z,1324
2017-01-07T10:02:58.424Z,1292
2017-01-07T10:03:58.354Z,1208
2017-01-07T10:04:59.315Z,1104
2017-01-07T10:05:58.243Z,1060
2017-01-07T10:06:59.195Z,1068
2017-01-07T10:07:58.852Z,1108
2017-01-07T10:08:59.454Z,1148
2017-01-07T10:09:57.509Z,1160
2017-01-07T10:10:57.460Z,1200
2017-01-07T10:11:57.730Z,1212
2017-01-07T10:12:59.372Z,1180
2017-01-07T10:13:59.397Z,1144
2017-01-07T10:14:58.939Z,1104
2017-01-07T10:15:58.588Z,1100
2017-01-07T10:16:57.926Z,1108
2017-01-07T10:17:57.782Z,1144
2017-01-07T10:18:58.405Z,1112
2017-01-07T10:19:57.412Z,1088
2017-01-07T10:20:58.454Z,1036
2017-01-07T10:21:58.375Z,988
2017-01-07T10:22:57.863Z,992
2017-01-07T10:23:58.322Z,1016
2017-01-07T10:24:57.018Z,1032
2017-01-07T10:25:57.986Z,1040
2017-01-07T10:26:58.142Z,1060
2017-01-07T10:27:57.911Z,1072
2017-01-07T10:28:57.217Z,1040
2017-01-07T10:29:58.882Z,1028
2017-01-07T10:30:57.319Z,1032
2017-01-07T10:31:57.969Z,1044
2017-01-07T10:32:57.435Z,1072
2017-01-07T10:33:58.693Z,1088
2017-01-07T10:34:58.055Z,1100
2017-01-07T10:35:57.435Z,1156
2017-01-07T10:36:57.652Z,1184
2017-01-07T10:37:57.605Z,1212
2017-01-07T10:38:57.921Z,1212
2017-01-07T10:39:57.563Z,1200
2017-01-07T10:40:58.531Z,1236
2017-01-07T10:41:57.474Z,1216
2017-01-07T10:42:57.825Z,1212
2017-01-07T10:43:57.121Z,1252
2017-01-07T10:44:57.404Z,1316
2017-01-07T10:45:57.064Z,1368
2017-01-07T10:46:57.405Z,1392
2017-01-07T10:47:57.326Z,1380
2017-01-07T10:48:58.126Z,1480
2017-01-07T10:49:57.768Z,1564
2017-01-07T10:50:57.568Z,1592
2017-01-07T10:51:57.217Z,1636
2017-01-07T10:52:58.149Z,1708
2017-01-07T10:53:56.136Z,1744
2017-01-07T10:54:57.142Z,1740
2017-01-07T10:55:58.099Z,1612
2017-01-07T10:56:57.697Z,1584
2017-01-07T10:57:57.368Z,1608
2017-01-07T10:58:56.656Z,1620
2017-01-07T10:59:56.617Z,1700
2017-01-07T11:00:56.666Z,1708
2017-01-07T11:01:57.250Z,1664
2017-01-07T11:02:57.725Z,1676
2017-01-07T11:03:56.895Z,1704
2017-01-07T11:04:55.783Z,1640
2017-01-07T11:05:56.375Z,1592
2017-01-07T11:06:57.102Z,1492
2017-01-07T11:07:56.932Z,1432
2017-01-07T11:08:56.397Z,1356
2017-01-07T11:09:57.181Z,1360
2017-01-07T11:10:57.649Z,1384
2017-01-07T11:11:56.884Z,1332
2017-01-07T11:12:56.193Z,1328
2017-01-07T11:13:56.276Z,1372
2017-01-07T11:14:56.199Z,1436
2017-01-07T11:15:57.547Z,1444
2017-01-07T11:16:57.153Z,1464
2017-01-07T11:17:56.123Z,1480
2017-01-07T11:18:56.145Z,1476
2017-01-07T11:19:56.648Z,1472
2017-01-07T11:20:56.026Z,1500
2017-01-07T11:21:57.025Z,1568
2017-01-07T11:22:57.286Z,1620
2017-01-07T11:23:55.215Z,1588
2017-01-07T11:24:56.495Z,1488
2017-01-07T11:25:56.745Z,1424
2017-01-07T11:26:55.993Z,1392
2017-01-07T11:27:55.753Z,1348
2017-01-07T11:28:56.787Z,1364
2017-01-07T11:29:56.542Z,1364
2017-01-07T11:30:55.672Z,1348
2017-01-07T11:31:55.632Z,1372
2017-01-07T11:32:56.850Z,1348
2017-01-07T11:33:56.100Z,1276
2017-01-07T11:34:56.964Z,1216
2017-01-07T11:35:55.920Z,1232
2017-01-07T11:36:56.560Z,1304
2017-01-07T11:37:56.199Z,1360
2017-01-07T11:38:55.786Z,1412
2017-01-07T11:39:56.139Z,1500
2017-01-07T11:40:56.024Z,1528
2017-01-07T11:41:55.530Z,1536
2017-01-07T11:42:56.047Z,1528
2017-01-07T11:43:55.748Z,1480
2017-01-07T11:44:55.007Z,1440
2017-01-07T11:45:56.496Z,1404
2017-01-07T11:46:55.732Z,1412
2017-01-07T11:47:55.915Z,1436
2017-01-07T11:48:54.886Z,1500
2017-01-07T11:49:55.195Z,1548
2017-01-07T11:50:55.153Z,1596
2017-01-07T11:51:55.142Z,1620
2017-01-07T11:52:55.763Z,1676
2017-01-07T11:53:55.981Z,1748
2017-01-07T11:54:56.347Z,1808
2017-01-07T11:55:55.341Z,1828
2017-01-07T11:56:55.628Z,1892
2017-01-07T11:57:56.370Z,1880
2017-01-07T11:58:55.582Z,1856
2017-01-07T11:59:55.499Z,1848
2017-01-07T12:00:55.388Z,1920
2017-01-07T12:01:56.117Z,2096
2017-01-07T12:02:55.167Z,2296
2017-01-07T12:03:54.488Z,2424
2017-01-07T12:04:55.328Z,2484
2017-01-07T12:05:54.736Z,2520
2017-01-07T12:06:55.698Z,2480
2017-01-07T12:07:54.658Z,2344
2017-01-07T12:08:54.996Z,2208
2017-01-07T12:09:55.263Z,2076
2017-01-07T12:10:54.877Z,1956
2017-01-07T12:11:54.144Z,1920
2017-01-07T12:12:53.943Z,1896
2017-01-07T12:13:55.672Z,1892
2017-01-07T12:14:55.764Z,1824
2017-01-07T12:15:55.062Z,1788
2017-01-07T12:16:55.093Z,1776
2017-01-07T12:17:55.532Z,1728
2017-01-07T12:18:54.936Z,1708
2017-01-07T12:19:54.743Z,1668
2017-01-07T12:20:54.781Z,1580
2017-01-07T12:21:54.789Z,1536
2017-01-07T12:22:54.149Z,1448
2017-01-07T12:23:54.399Z,1332
2017-01-07T12:24:54.114Z,1260
2017-01-07T12:25:54.398Z,1168
2017-01-07T12:26:54.428Z,1140
2017-01-07T12:27:55.273Z,1048
2017-01-07T12:28:53.976Z,1008
2017-01-07T12:29:54.116Z,1000
2017-01-07T12:30:54.842Z,976
2017-01-07T12:31:54.966Z,1000
2017-01-07T12:32:54.940Z,972
2017-01-07T12:33:53.927Z,952
2017-01-07T12:34:53.993Z,932
2017-01-07T12:35:53.883Z,924
2017-01-07T12:36:54.475Z,916
2017-01-07T12:37:54.406Z,892
2017-01-07T12:38:55.099Z,876
2017-01-07T12:39:54.470Z,876
2017-01-07T12:40:53.630Z,836
2017-01-07T12:41:53.612Z,824
2017-01-07T12:42:54.280Z,792
2017-01-07T12:43:54.237Z,788
2017-01-07T12:44:54.250Z,776
2017-01-07T12:45:54.118Z,800
2017-01-07T12:46:52.818Z,760
2017-01-07T12:47:53.837Z,752
2017-01-07T12:48:54.195Z,748
2017-01-07T12:49:53.465Z,780
2017-01-07T12:50:54.758Z,768
2017-01-07T12:51:53.999Z,772
2017-01-07T12:52:53.411Z,776
2017-01-07T12:53:53.652Z,772
2017-01-07T12:54:53.244Z,760
2017-01-07T12:55:53.175Z,776
2017-01-07T12:56:54.225Z,772
2017-01-07T12:57:52.899Z,768
2017-01-07T12:58:53.777Z,760
2017-01-07T12:59:52.512Z,740
2017-01-07T13:00:54.121Z,732
2017-01-07T13:01:53.761Z,732
2017-01-07T13:02:53.630Z,696
2017-01-07T13:03:53.896Z,676
2017-01-07T13:04:53.597Z,692
2017-01-07T13:05:54.310Z,672
2017-01-07T13:06:53.626Z,676
2017-01-07T13:07:53.618Z,640
2017-01-07T13:08:52.819Z,640
2017-01-07T13:09:53.120Z,644
2017-01-07T13:10:52.206Z,616
2017-01-07T13:11:53.183Z,628
2017-01-07T13:12:53.296Z,616
2017-01-07T13:13:53.797Z,620
2017-01-07T13:14:52.653Z,644
2017-01-07T13:15:52.743Z,584
2017-01-07T13:16:53.575Z,608
2017-01-07T13:17:53.234Z,576
2017-01-07T13:18:53.916Z,516
2017-01-07T13:19:52.941Z,508
2017-01-07T13:20:52.501Z,480
2017-01-07T13:21:53.087Z,468
2017-01-07T13:22:52.582Z,456
2017-01-07T13:23:52.276Z,448
2017-01-07T13:24:52.694Z,464
2017-01-07T13:25:53.840Z,428
2017-01-07T13:26:53.423Z,428
2017-01-07T13:27:52.659Z,416
2017-01-07T13:28:52.511Z,424
2017-01-07T13:29:52.872Z,420
2017-01-07T13:30:51.377Z,416
2017-01-07T13:31:52.808Z,436
2017-01-07T13:32:52.587Z,412
2017-01-07T13:33:52.684Z,420
2017-01-07T13:34:53.274Z,432
2017-01-07T13:35:52.416Z,456
2017-01-07T13:36:52.132Z,468
2017-01-07T13:37:53.086Z,464
2017-01-07T13:38:52.020Z,488
2017-01-07T13:39:52.082Z,528
2017-01-07T13:40:52.981Z,460
2017-01-07T13:41:52.303Z,452
2017-01-07T13:42:52.774Z,492
2017-01-07T13:43:52.245Z,520
2017-01-07T13:44:52.582Z,536
2017-01-07T13:45:52.444Z,524
2017-01-07T13:46:51.706Z,560
2017-01-07T13:47:52.048Z,596
2017-01-07T13:48:52.761Z,620
2017-01-07T13:49:51.724Z,624
2017-01-07T13:50:52.043Z,616
2017-01-07T13:51:51.933Z,604
2017-01-07T13:52:52.828Z,636
2017-01-07T13:53:52.578Z,648
2017-01-07T13:54:51.785Z,616
2017-01-07T13:55:52.566Z,612
2017-01-07T13:56:52.376Z,588
2017-01-07T13:57:51.863Z,600
2017-01-07T13:58:52.151Z,636
2017-01-07T13:59:52.192Z,628
2017-01-07T14:00:52.222Z,588
2017-01-07T14:01:51.633Z,580
2017-01-07T14:02:52.689Z,536
2017-01-07T14:03:52.051Z,532
2017-01-07T14:04:51.512Z,560
2017-01-07T14:05:51.930Z,520
2017-01-07T14:06:51.123Z,536
2017-01-07T14:07:51.911Z,532
2017-01-07T14:08:51.190Z,508